HKNW

Details ICAO HKNW (WIL)
Name NAIROBI WILSON
Region Kenya
Timezone Africa/Nairobi (UTC+3.0)
Plans Departing 90
Arriving 59
Stats Elevation 5,546 ft / 1,690 m (AMSL)
Location -1.323150° 36.814700°
Runways 2
Magnetic Variation 0.634° E
Sunrise 2018-12-16 03:23:41 UTC / 2018-12-16 06:23:41 Local
Sunset 2018-12-16 15:35:30 UTC / 2018-12-16 18:35:30 Local
Advertisement - Login to hide

Runways

ID Width Length Bearing (true/mag) Surface Threshold Overrun Markings Lighting
07 72 ft / 22 m 4,799 ft / 1,463 m 69.77° / 69.14° ASPHALT 0 ft / 0 m 0 ft / 0 m APP EDGE THRESHOLD
14 76 ft / 23 m 5,065 ft / 1,544 m 134.15° / 133.52° ASPHALT 0 ft / 0 m 0 ft / 0 m APP
25 72 ft / 22 m 4,799 ft / 1,463 m 249.77° / 249.14° ASPHALT 0 ft / 0 m 0 ft / 0 m APP EDGE THRESHOLD
32 76 ft / 23 m 5,065 ft / 1,544 m 314.15° / 313.52° ASPHALT 0 ft / 0 m 0 ft / 0 m APP

Map

Weather


0- 5 10 15 20 25 30 35+ Temperature / °C

Clouds and Precipitation
Forecast for 2018-12-16 06:00 UTC. Updated 4 hours ago

Ground ~20,000 ft ~40,000 ft Winds

METAR

HKNW 160700Z 03004KT 9999 FEW024 22/14 Q1024

TAF

Not found

Frequencies

Tower 118.10 MHz WILSON TWR
Warning: Do not use this data for real-world aviation or navigation. No guarantee of current accuracy is given.